Time;durP1;ratioP1;P1;durP2;ratioP2;P2;SDS_P1;SDS_P2;PMS_P1;PMS_P2;Temp;Humidity;BMP_temperature;BMP_pressure;BME280_temperature;BME280_humidity;BME280_pressure;Samples;Min_cycle;Max_cycle;Signal;HPM_P1;HPM_P2
2021/12/01 00:00:22;;;;;;;14.38;9.27;;;8.40;99.90;;;;;;5047994;28;20415;-71
2021/12/01 00:02:53;;;;;;;17.85;9.82;;;8.40;99.90;;;;;;5048295;28;20442;-72
2021/12/01 00:05:20;;;;;;;16.73;9.77;;;8.40;99.90;;;;;;5048206;28;20057;-72
2021/12/01 00:07:46;;;;;;;14.50;8.93;;;8.50;99.90;;;;;;5047099;28;20065;-71
2021/12/01 00:10:11;;;;;;;21.83;11.65;;;8.50;99.90;;;;;;5048466;28;20132;-72
2021/12/01 00:12:37;;;;;;;18.27;9.95;;;8.70;99.90;;;;;;5049325;28;20051;-72
2021/12/01 00:15:06;;;;;;;21.60;11.38;;;8.70;99.90;;;;;;5048855;28;20048;-72
2021/12/01 00:17:32;;;;;;;19.67;11.15;;;8.70;99.90;;;;;;5050559;28;20088;-71
2021/12/01 00:19:59;;;;;;;23.77;13.70;;;8.90;99.90;;;;;;5053054;28;20041;-71
2021/12/01 00:22:25;;;;;;;27.85;13.80;;;8.80;99.90;;;;;;5052649;28;20041;-71
2021/12/01 00:24:51;;;;;;;25.35;12.48;;;8.90;99.90;;;;;;5052793;28;20389;-71
2021/12/01 00:27:17;;;;;;;22.25;13.07;;;8.90;99.90;;;;;;5053041;28;20055;-71
2021/12/01 00:29:42;;;;;;;23.17;13.98;;;8.90;99.90;;;;;;5051960;28;20048;-71
2021/12/01 00:32:08;;;;;;;28.40;16.25;;;9.00;99.90;;;;;;5051916;28;20106;-71
2021/12/01 00:34:34;;;;;;;27.58;14.55;;;8.90;99.90;;;;;;5052650;28;20376;-72
2021/12/01 00:36:59;;;;;;;33.50;18.92;;;9.00;99.90;;;;;;5050847;28;20445;-71
2021/12/01 00:39:25;;;;;;;28.13;15.25;;;9.00;99.90;;;;;;5052991;28;20102;-71
2021/12/01 00:41:51;;;;;;;33.67;17.13;;;9.00;99.90;;;;;;5052801;28;20036;-71
2021/12/01 00:44:17;;;;;;;29.25;16.80;;;9.00;99.90;;;;;;5052045;28;20048;-71
2021/12/01 00:46:56;;;;;;;34.80;18.65;;;9.10;99.90;;;;;;5051128;28;20049;-71
2021/12/01 00:49:22;;;;;;;31.20;18.13;;;9.10;99.90;;;;;;5051918;28;20120;-71
2021/12/01 00:51:48;;;;;;;28.52;14.13;;;9.20;99.90;;;;;;5052059;28;20083;-71
2021/12/01 00:54:14;;;;;;;26.27;15.18;;;9.20;99.90;;;;;;5052455;28;20742;-71
2021/12/01 00:56:39;;;;;;;28.88;14.88;;;9.20;99.90;;;;;;5050093;28;20120;-71
2021/12/01 00:59:06;;;;;;;31.17;15.15;;;9.20;99.90;;;;;;5052453;28;20045;-71
2021/12/01 01:01:31;;;;;;;25.00;13.73;;;9.20;99.90;;;;;;5051184;28;20052;-71
2021/12/01 01:03:57;;;;;;;32.63;15.50;;;9.10;99.90;;;;;;5050146;28;20045;-71
2021/12/01 01:06:23;;;;;;;23.33;12.05;;;9.20;99.90;;;;;;5052293;28;20411;-72
2021/12/01 01:08:48;;;;;;;19.60;10.65;;;9.20;99.90;;;;;;5050532;28;20079;-71
2021/12/01 01:16:45;;;;;;;14.32;10.32;;;9.30;99.90;;;;;;5052022;28;20049;-72
2021/12/01 01:19:13;;;;;;;17.50;10.55;;;9.40;99.90;;;;;;5050391;28;20405;-71
2021/12/01 01:21:44;;;;;;;20.13;11.38;;;9.30;99.90;;;;;;5051781;28;20503;-71
2021/12/01 01:24:10;;;;;;;19.70;11.15;;;9.40;99.90;;;;;;5050873;28;20080;-71
2021/12/01 01:26:36;;;;;;;18.33;8.77;;;9.30;99.90;;;;;;5058175;28;20044;-72
2021/12/01 01:29:04;;;;;;;15.65;8.80;;;9.40;99.90;;;;;;5061456;28;20059;-71
2021/12/01 01:31:30;;;;;;;16.15;8.00;;;9.30;99.90;;;;;;5051664;28;20045;-71
2021/12/01 01:33:57;;;;;;;13.90;7.95;;;9.40;99.90;;;;;;5055600;28;20060;-71
2021/12/01 01:36:23;;;;;;;19.40;8.43;;;9.40;99.90;;;;;;5071792;28;20072;-71
2021/12/01 01:38:49;;;;;;;19.35;7.97;;;9.40;99.90;;;;;;5070511;28;20470;-71
2021/12/01 01:41:16;;;;;;;20.20;7.28;;;9.40;99.90;;;;;;5070118;28;20131;-71
2021/12/01 01:43:44;;;;;;;18.55;8.25;;;9.40;99.90;;;;;;5070263;28;20062;-71
2021/12/01 01:46:11;;;;;;;19.33;8.13;;;9.40;99.90;;;;;;5070948;28;20398;-71
2021/12/01 01:48:52;;;;;;;13.48;6.60;;;9.40;99.90;;;;;;5069751;28;20055;-71
2021/12/01 01:51:21;;;;;;;13.35;6.47;;;9.50;99.90;;;;;;5069845;28;20719;-71
2021/12/01 01:53:49;;;;;;;14.35;5.63;;;9.40;99.90;;;;;;5070438;28;20052;-71
2021/12/01 01:56:15;;;;;;;16.73;7.40;;;9.40;99.90;;;;;;5071362;28;20132;-71
2021/12/01 01:58:40;;;;;;;19.25;5.75;;;9.50;99.90;;;;;;5071145;28;20119;-71
2021/12/01 02:01:10;;;;;;;11.18;5.38;;;9.50;99.90;;;;;;5059559;28;20117;-71
2021/12/01 02:03:39;;;;;;;11.90;5.80;;;9.50;99.90;;;;;;5063981;28;20502;-71
2021/12/01 02:06:06;;;;;;;14.63;5.53;;;9.50;99.90;;;;;;5049711;28;20140;-71
2021/12/01 02:08:34;;;;;;;10.93;4.40;;;9.50;99.90;;;;;;5049951;28;20574;-71
2021/12/01 02:11:01;;;;;;;13.55;4.03;;;9.60;99.90;;;;;;5051185;28;20037;-71
2021/12/01 02:13:28;;;;;;;5.78;3.25;;;9.50;99.90;;;;;;5049827;28;20067;-71
2021/12/01 02:15:55;;;;;;;10.05;3.65;;;9.40;99.90;;;;;;5049474;28;20052;-71
2021/12/01 02:18:21;;;;;;;11.13;3.65;;;9.50;99.90;;;;;;5051015;28;20056;-71
2021/12/01 02:21:02;;;;;;;7.45;2.83;;;9.50;99.90;;;;;;5048415;28;20044;-71
2021/12/01 02:23:28;;;;;;;14.75;3.63;;;9.50;99.90;;;;;;5049840;28;20072;-71
2021/12/01 02:25:54;;;;;;;8.38;2.10;;;9.50;99.90;;;;;;5049442;28;20080;-71
2021/12/01 02:28:20;;;;;;;10.70;2.50;;;9.50;99.90;;;;;;5048549;28;20087;-71
2021/12/01 02:30:46;;;;;;;13.82;3.53;;;9.50;99.90;;;;;;5049302;28;20060;-71
2021/12/01 02:33:12;;;;;;;7.97;2.42;;;9.50;99.90;;;;;;5050627;28;20053;-71
2021/12/01 02:35:38;;;;;;;5.20;1.45;;;9.50;99.90;;;;;;5049873;28;20053;-71
2021/12/01 02:38:04;;;;;;;5.97;1.38;;;9.50;99.90;;;;;;5050798;28;20087;-71
2021/12/01 02:40:31;;;;;;;3.78;1.38;;;9.50;99.90;;;;;;5050097;28;20040;-71
2021/12/01 02:42:57;;;;;;;2.25;1.27;;;9.40;99.90;;;;;;5049835;28;20094;-70
2021/12/01 02:45:23;;;;;;;5.50;1.20;;;9.50;99.90;;;;;;5050530;28;20147;-71
2021/12/01 02:47:48;;;;;;;7.63;1.88;;;9.40;99.90;;;;;;5048625;28;20048;-71
2021/12/01 02:50:14;;;;;;;5.82;1.75;;;9.40;99.90;;;;;;5049393;28;20416;-71
2021/12/01 02:52:41;;;;;;;5.75;1.77;;;9.30;99.90;;;;;;5049921;28;20053;-71
2021/12/01 02:55:09;;;;;;;8.77;2.17;;;9.40;99.90;;;;;;5050167;28;20498;-71
2021/12/01 02:57:52;;;;;;;8.02;2.53;;;9.40;99.90;;;;;;5048195;28;20540;-72
2021/12/01 03:00:21;;;;;;;11.68;2.85;;;9.50;99.90;;;;;;5050297;28;20049;-71
2021/12/01 03:02:48;;;;;;;13.82;2.95;;;9.50;99.90;;;;;;5049276;28;20492;-71
2021/12/01 03:05:16;;;;;;;14.05;2.95;;;9.50;99.90;;;;;;5049001;28;20145;-71
2021/12/01 03:07:42;;;;;;;9.68;2.28;;;9.40;99.90;;;;;;5049793;28;20646;-71
2021/12/01 03:10:08;;;;;;;14.43;3.35;;;9.40;99.90;;;;;;5048276;28;20065;-71
2021/12/01 03:12:36;;;;;;;7.07;1.33;;;9.50;99.90;;;;;;5054551;28;20048;-71
2021/12/01 03:15:03;;;;;;;9.40;1.98;;;9.50;99.90;;;;;;5052800;28;20055;-71
2021/12/01 03:17:30;;;;;;;5.80;2.28;;;9.50;99.90;;;;;;5068259;28;20150;-71
2021/12/01 03:19:56;;;;;;;10.25;2.33;;;9.50;99.90;;;;;;5070322;28;20037;-71
2021/12/01 03:22:23;;;;;;;6.10;1.90;;;9.50;99.90;;;;;;5070195;28;20094;-71
2021/12/01 03:24:49;;;;;;;8.90;2.25;;;9.60;99.90;;;;;;5069115;28;20131;-72
2021/12/01 03:27:14;;;;;;;8.68;2.58;;;9.50;99.90;;;;;;5062938;28;20136;-71
2021/12/01 03:29:40;;;;;;;6.80;2.10;;;9.40;99.90;;;;;;5064712;28;20051;-71
2021/12/01 03:32:07;;;;;;;5.80;1.40;;;9.50;99.90;;;;;;5049488;28;20132;-71
2021/12/01 03:34:34;;;;;;;5.72;1.50;;;9.40;99.90;;;;;;5049822;28;20059;-71
2021/12/01 03:37:00;;;;;;;12.43;2.22;;;9.40;99.90;;;;;;5048582;28;20085;-71
2021/12/01 03:39:26;;;;;;;7.47;1.83;;;9.40;99.90;;;;;;5049105;28;20073;-71
2021/12/01 03:41:52;;;;;;;8.95;2.20;;;9.40;99.90;;;;;;5049642;28;20057;-71
2021/12/01 03:44:18;;;;;;;9.07;2.05;;;9.40;99.90;;;;;;5049849;28;20045;-71
2021/12/01 03:46:43;;;;;;;13.18;3.40;;;9.50;99.90;;;;;;5049035;28;20059;-71
2021/12/01 03:49:09;;;;;;;14.63;3.28;;;9.50;99.90;;;;;;5049853;28;20084;-71
2021/12/01 03:51:35;;;;;;;13.57;3.13;;;9.50;99.90;;;;;;5049382;28;20499;-71
2021/12/01 03:54:02;;;;;;;20.17;3.63;;;9.50;99.90;;;;;;5052830;28;20063;-71
2021/12/01 03:56:29;;;;;;;14.40;3.17;;;9.40;99.90;;;;;;5052653;28;20057;-71
2021/12/01 03:58:56;;;;;;;17.15;2.80;;;9.40;99.90;;;;;;5052209;28;20037;-71
2021/12/01 04:01:21;;;;;;;14.52;3.97;;;9.40;99.90;;;;;;5052987;28;20044;-71
2021/12/01 04:03:47;;;;;;;17.60;3.30;;;9.40;99.90;;;;;;5053146;28;20380;-71
2021/12/01 04:06:13;;;;;;;15.82;2.80;;;9.50;99.90;;;;;;5052743;28;20067;-71
2021/12/01 04:08:38;;;;;;;22.67;4.05;;;9.40;99.90;;;;;;5053048;28;20056;-71
2021/12/01 04:11:04;;;;;;;16.70;4.38;;;9.40;99.90;;;;;;5053290;28;20041;-71
2021/12/01 04:13:30;;;;;;;16.65;3.58;;;9.30;99.90;;;;;;5052220;28;20052;-71
2021/12/01 04:15:55;;;;;;;13.73;2.92;;;9.40;99.90;;;;;;5053464;28;20480;-71
2021/12/01 04:18:21;;;;;;;13.43;2.67;;;9.40;99.90;;;;;;5051917;28;20060;-71
2021/12/01 04:20:47;;;;;;;15.93;3.67;;;9.40;99.90;;;;;;5051168;28;20053;-71
2021/12/01 04:23:12;;;;;;;17.42;2.75;;;9.20;99.90;;;;;;5053315;28;20051;-71
2021/12/01 04:25:38;;;;;;;13.23;2.50;;;9.20;99.90;;;;;;5051703;28;20053;-71
2021/12/01 04:28:04;;;;;;;11.68;2.55;;;9.20;99.90;;;;;;5052190;28;20071;-71
2021/12/01 04:30:30;;;;;;;8.10;2.08;;;9.20;99.90;;;;;;5052861;28;20122;-71
2021/12/01 04:32:57;;;;;;;12.32;2.13;;;9.30;99.90;;;;;;5053030;28;20495;-71
2021/12/01 04:35:25;;;;;;;8.25;2.40;;;9.30;99.90;;;;;;5052127;28;20135;-71
2021/12/01 04:37:50;;;;;;;7.47;2.50;;;9.30;99.90;;;;;;5052644;28;20041;-71
2021/12/01 04:40:16;;;;;;;7.45;1.95;;;9.30;99.90;;;;;;5052869;28;20364;-71
2021/12/01 04:42:43;;;;;;;10.18;1.80;;;9.20;99.90;;;;;;5050716;28;20060;-71
2021/12/01 04:45:18;;;;;;;8.13;1.83;;;9.30;99.90;;;;;;5051555;28;20186;-71
2021/12/01 04:47:46;;;;;;;6.80;1.80;;;9.20;99.90;;;;;;5050931;28;20057;-71
2021/12/01 04:50:13;;;;;;;6.63;1.73;;;9.30;99.90;;;;;;5050557;28;20057;-71
2021/12/01 04:52:39;;;;;;;6.47;1.55;;;9.30;99.90;;;;;;5052318;28;20057;-71
2021/12/01 04:55:06;;;;;;;5.57;1.45;;;9.30;99.90;;;;;;5051097;28;20395;-71
2021/12/01 04:57:31;;;;;;;5.13;1.63;;;9.30;99.90;;;;;;5051483;28;20548;-71
2021/12/01 04:59:57;;;;;;;2.28;1.55;;;9.30;99.90;;;;;;5052627;28;20127;-71
2021/12/01 05:02:23;;;;;;;5.43;2.20;;;9.30;99.90;;;;;;5051556;28;20518;-71
2021/12/01 05:04:49;;;;;;;4.22;1.63;;;9.30;99.90;;;;;;5050552;28;20053;-71
2021/12/01 05:07:14;;;;;;;3.70;1.42;;;9.30;99.90;;;;;;5051369;28;20048;-71
2021/12/01 05:09:40;;;;;;;3.03;1.50;;;9.20;99.90;;;;;;5051056;28;20911;-70
2021/12/01 05:12:09;;;;;;;3.28;0.90;;;9.30;99.90;;;;;;5051063;28;20080;-71
2021/12/01 05:14:36;;;;;;;2.90;1.73;;;9.40;99.90;;;;;;5050545;28;20053;-71
2021/12/01 05:17:03;;;;;;;1.45;1.15;;;9.30;99.90;;;;;;5051663;28;20070;-71
2021/12/01 05:19:28;;;;;;;2.38;0.95;;;9.30;99.90;;;;;;5050852;28;20775;-71
2021/12/01 05:21:54;;;;;;;1.48;1.20;;;9.20;99.90;;;;;;5052093;28;20056;-71
2021/12/01 05:24:20;;;;;;;2.05;0.60;;;9.20;99.90;;;;;;5050162;28;20045;-71
2021/12/01 05:26:46;;;;;;;1.33;0.85;;;9.20;99.90;;;;;;5050510;28;20533;-71
2021/12/01 05:29:11;;;;;;;1.10;0.73;;;9.30;99.90;;;;;;5050406;28;20057;-71
2021/12/01 05:31:37;;;;;;;1.02;0.60;;;9.20;99.90;;;;;;5050999;28;20045;-71
2021/12/01 05:34:03;;;;;;;1.65;0.75;;;9.20;99.90;;;;;;5051770;28;20601;-71
2021/12/01 05:36:28;;;;;;;0.43;0.40;;;9.20;99.90;;;;;;5054976;28;20063;-71
2021/12/01 05:38:54;;;;;;;0.30;0.30;;;9.10;99.90;;;;;;5066926;28;20044;-70
2021/12/01 05:41:20;;;;;;;0.60;0.35;;;9.20;99.90;;;;;;5051823;28;20113;-70
2021/12/01 05:43:46;;;;;;;0.40;0.32;;;9.10;99.90;;;;;;5051445;28;20060;-71
2021/12/01 05:46:11;;;;;;;0.40;0.40;;;9.20;99.90;;;;;;5051215;28;20163;-70
2021/12/01 05:48:37;;;;;;;0.55;0.52;;;9.10;99.90;;;;;;5051233;28;20106;-70
2021/12/01 05:51:03;;;;;;;0.30;0.30;;;9.10;99.90;;;;;;5051300;28;20064;-71
2021/12/01 05:53:29;;;;;;;0.40;0.40;;;9.10;99.90;;;;;;5054630;28;20083;-71
2021/12/01 05:55:55;;;;;;;0.63;0.30;;;9.10;99.90;;;;;;5059545;28;20080;-70
2021/12/01 05:58:21;;;;;;;0.55;0.47;;;9.00;99.90;;;;;;5060526;28;20371;-71
2021/12/01 06:00:48;;;;;;;0.50;0.50;;;9.00;99.90;;;;;;5069218;28;20056;-71
2021/12/01 06:03:13;;;;;;;0.60;0.60;;;9.00;99.90;;;;;;5055274;28;20530;-71
2021/12/01 06:05:39;;;;;;;1.38;0.80;;;9.00;99.90;;;;;;5049107;28;20041;-71
2021/12/01 06:08:05;;;;;;;0.85;0.47;;;9.00;99.90;;;;;;5049921;28;20107;-71
2021/12/01 06:10:31;;;;;;;0.60;0.60;;;9.00;99.90;;;;;;5049733;28;20052;-71
2021/12/01 06:12:57;;;;;;;0.80;0.80;;;8.90;99.90;;;;;;5054376;28;20045;-71
2021/12/01 06:15:22;;;;;;;1.13;1.05;;;9.00;99.90;;;;;;5068554;28;20056;-70
2021/12/01 06:17:48;;;;;;;1.83;1.30;;;8.90;99.90;;;;;;5049270;28;20456;-71
2021/12/01 06:20:14;;;;;;;3.30;1.50;;;8.90;99.90;;;;;;5050255;28;20044;-71
2021/12/01 06:22:41;;;;;;;1.70;1.60;;;8.90;99.90;;;;;;5058102;28;20044;-71
2021/12/01 06:25:08;;;;;;;2.10;1.30;;;8.90;99.90;;;;;;5062921;28;20457;-71
2021/12/01 06:27:34;;;;;;;2.00;1.80;;;8.90;99.90;;;;;;5056424;28;20151;-71
2021/12/01 06:29:59;;;;;;;6.68;1.90;;;9.00;99.90;;;;;;5050799;28;20127;-70
2021/12/01 06:32:25;;;;;;;1.60;1.48;;;8.90;99.90;;;;;;5050673;28;20060;-71
2021/12/01 06:34:51;;;;;;;2.10;1.90;;;8.90;99.90;;;;;;5048287;28;20044;-70
2021/12/01 06:37:18;;;;;;;1.67;1.30;;;8.90;99.90;;;;;;5050540;28;20055;-71
2021/12/01 06:39:44;;;;;;;1.65;1.50;;;8.90;99.90;;;;;;5050529;28;20064;-71
2021/12/01 06:42:09;;;;;;;1.35;1.25;;;8.90;99.90;;;;;;5047727;28;20135;-71
2021/12/01 06:44:35;;;;;;;2.63;1.90;;;8.80;99.90;;;;;;5048634;28;20120;-71
2021/12/01 06:47:02;;;;;;;3.08;1.88;;;8.80;99.90;;;;;;5054675;28;20052;-71
2021/12/01 06:49:27;;;;;;;1.83;1.73;;;8.80;99.90;;;;;;5056311;28;20439;-71
2021/12/01 06:51:53;;;;;;;1.88;1.65;;;8.80;99.90;;;;;;5057492;28;20060;-71
2021/12/01 06:54:19;;;;;;;2.15;1.67;;;8.80;99.90;;;;;;5069116;28;20048;-71
2021/12/01 06:56:45;;;;;;;2.33;1.75;;;8.80;99.90;;;;;;5069493;28;20044;-71
2021/12/01 06:59:11;;;;;;;1.52;1.08;;;8.80;99.90;;;;;;5070253;28;20045;-71
2021/12/01 07:01:37;;;;;;;1.10;0.98;;;8.90;99.90;;;;;;5057647;28;20046;-71
2021/12/01 07:04:02;;;;;;;2.90;1.75;;;8.80;99.90;;;;;;5055322;28;20419;-71
2021/12/01 07:06:28;;;;;;;1.95;1.85;;;8.80;99.90;;;;;;5065500;28;20136;-71
2021/12/01 07:08:59;;;;;;;1.67;1.55;;;8.90;99.90;;;;;;5059430;28;20475;-71
2021/12/01 07:11:24;;;;;;;1.83;1.58;;;8.80;99.90;;;;;;5050554;28;20049;-71
2021/12/01 07:13:50;;;;;;;4.05;2.45;;;8.90;99.90;;;;;;5068439;28;20044;-71
2021/12/01 07:16:16;;;;;;;2.13;1.92;;;8.80;99.90;;;;;;5068305;28;20084;-71
2021/12/01 07:18:41;;;;;;;3.47;2.35;;;8.80;99.90;;;;;;5068511;28;20135;-71
2021/12/01 07:21:07;;;;;;;2.38;2.17;;;9.00;99.90;;;;;;5068705;28;20143;-71
2021/12/01 07:23:33;;;;;;;4.50;2.60;;;8.90;99.90;;;;;;5063486;28;20095;-71
2021/12/01 07:25:59;;;;;;;3.90;2.08;;;9.00;99.90;;;;;;5061152;28;20052;-70
2021/12/01 07:28:24;;;;;;;2.38;1.90;;;9.00;99.90;;;;;;5064294;28;20063;-71
2021/12/01 07:30:50;;;;;;;4.00;2.72;;;9.00;99.90;;;;;;5073020;28;20048;-70
2021/12/01 07:33:15;;;;;;;2.67;2.22;;;9.10;99.90;;;;;;5073021;28;20055;-71
2021/12/01 07:35:41;;;;;;;7.57;3.03;;;9.00;99.90;;;;;;5072381;28;20067;-71
2021/12/01 07:38:07;;;;;;;5.57;2.42;;;9.10;99.90;;;;;;5072215;28;20052;-70
2021/12/01 07:40:32;;;;;;;5.47;2.75;;;9.10;99.90;;;;;;5073806;28;20055;-71
2021/12/01 07:42:58;;;;;;;6.22;2.70;;;9.10;99.90;;;;;;5073882;28;20114;-71
2021/12/01 07:45:23;;;;;;;2.65;2.42;;;9.10;99.90;;;;;;5066316;28;20866;-70
2021/12/01 07:47:49;;;;;;;6.93;3.08;;;9.10;99.90;;;;;;5056283;28;20053;-71
2021/12/01 07:50:15;;;;;;;4.50;2.67;;;9.10;99.90;;;;;;5072167;28;20438;-71
2021/12/01 07:52:40;;;;;;;6.95;3.33;;;9.10;99.90;;;;;;5057822;28;20045;-71
2021/12/01 07:55:07;;;;;;;9.75;3.45;;;9.20;99.90;;;;;;5052168;28;20052;-71
2021/12/01 07:57:33;;;;;;;4.07;3.22;;;9.20;99.90;;;;;;5052306;28;20190;-71
2021/12/01 07:59:59;;;;;;;7.25;3.30;;;9.10;99.90;;;;;;5052506;28;20045;-71
2021/12/01 08:02:25;;;;;;;9.43;3.78;;;9.10;99.90;;;;;;5055842;28;20124;-71
2021/12/01 08:04:50;;;;;;;6.13;2.65;;;9.10;99.90;;;;;;5060723;28;20041;-71
2021/12/01 08:07:16;;;;;;;7.53;2.63;;;9.10;99.90;;;;;;5051917;28;20048;-71
2021/12/01 08:09:42;;;;;;;8.13;3.10;;;9.20;99.90;;;;;;5047254;28;20395;-70
2021/12/01 08:12:11;;;;;;;6.63;2.45;;;9.20;99.90;;;;;;5055976;28;20151;-71
2021/12/01 08:14:37;;;;;;;6.03;2.78;;;9.20;99.90;;;;;;5062886;28;20064;-70
2021/12/01 08:17:03;;;;;;;7.70;2.60;;;9.20;99.90;;;;;;5058167;28;20125;-71
2021/12/01 08:19:28;;;;;;;4.15;2.53;;;9.20;99.90;;;;;;5052551;28;20511;-71
2021/12/01 08:21:54;;;;;;;14.10;3.55;;;9.20;99.90;;;;;;5053163;28;20044;-71
2021/12/01 08:24:20;;;;;;;4.88;2.20;;;9.20;99.90;;;;;;5053182;28;20380;-71
2021/12/01 08:26:46;;;;;;;5.25;2.00;;;9.20;99.90;;;;;;5050790;28;20043;-71
2021/12/01 08:29:13;;;;;;;3.03;1.58;;;9.20;99.90;;;;;;5053040;28;20182;-71
2021/12/01 08:31:39;;;;;;;5.93;1.52;;;9.20;99.90;;;;;;5051311;28;20614;-71
2021/12/01 08:34:05;;;;;;;8.13;1.63;;;9.10;99.90;;;;;;5053435;28;20049;-71
2021/12/01 08:36:30;;;;;;;5.68;1.83;;;9.10;99.90;;;;;;5060568;28;20514;-71
2021/12/01 08:38:56;;;;;;;5.65;1.65;;;9.10;99.90;;;;;;5061680;28;20041;-70
2021/12/01 08:41:22;;;;;;;5.05;1.70;;;9.10;99.90;;;;;;5069955;28;20570;-70
2021/12/01 08:43:48;;;;;;;8.90;2.08;;;9.00;99.90;;;;;;5050046;28;20056;-70
2021/12/01 08:46:14;;;;;;;10.55;1.70;;;8.90;99.90;;;;;;5066897;28;20087;-70
2021/12/01 08:48:40;;;;;;;14.18;3.28;;;8.90;99.90;;;;;;5051075;28;20048;-71
2021/12/01 08:51:06;;;;;;;14.20;2.53;;;8.90;99.90;;;;;;5058276;28;20053;-72
2021/12/01 08:53:34;;;;;;;13.48;2.63;;;8.90;99.90;;;;;;5051194;28;20069;-72
2021/12/01 08:56:00;;;;;;;7.38;2.30;;;8.90;99.90;;;;;;5051863;28;20407;-71
2021/12/01 08:58:27;;;;;;;15.38;2.25;;;8.90;99.90;;;;;;5051438;28;20049;-68
2021/12/01 09:00:54;;;;;;;10.80;2.22;;;8.90;99.90;;;;;;5050425;28;20155;-72
2021/12/01 09:03:22;;;;;;;11.32;1.92;;;8.90;99.90;;;;;;5050145;28;20486;-77
2021/12/01 09:05:48;;;;;;;8.45;1.80;;;8.90;99.90;;;;;;5068306;28;20406;-72
2021/12/01 09:08:15;;;;;;;10.43;1.80;;;8.90;99.90;;;;;;5062339;28;20060;-69
2021/12/01 09:10:41;;;;;;;7.88;1.67;;;8.90;99.90;;;;;;5057213;28;20446;-68
2021/12/01 09:13:07;;;;;;;7.03;1.38;;;8.80;99.90;;;;;;5049596;28;20048;-67
2021/12/01 09:15:34;;;;;;;12.98;1.85;;;8.90;99.90;;;;;;5055791;28;20098;-68
2021/12/01 09:18:00;;;;;;;9.43;2.13;;;8.80;99.90;;;;;;5072265;28;20083;-68
2021/12/01 09:20:27;;;;;;;6.35;1.58;;;8.80;99.90;;;;;;5072175;28;20063;-68
2021/12/01 09:22:53;;;;;;;4.47;1.30;;;8.60;99.90;;;;;;5071257;28;20057;-67
2021/12/01 09:25:19;;;;;;;8.38;1.70;;;8.60;99.90;;;;;;5039747;28;20396;-68
2021/12/01 09:27:46;;;;;;;11.82;2.40;;;8.50;99.90;;;;;;5047882;28;20041;-68
2021/12/01 09:30:15;;;;;;;7.60;1.50;;;8.40;99.90;;;;;;5037855;28;20832;-68
2021/12/01 09:32:40;;;;;;;7.97;1.70;;;8.50;99.90;;;;;;5045452;28;20037;-68
2021/12/01 09:35:07;;;;;;;4.93;1.75;;;8.50;99.90;;;;;;5045698;28;20079;-67
2021/12/01 09:37:33;;;;;;;9.45;2.03;;;8.50;99.90;;;;;;5035889;28;20037;-67
2021/12/01 09:40:01;;;;;;;18.50;2.40;;;8.50;99.90;;;;;;5048804;28;20048;-68
2021/12/01 09:42:28;;;;;;;18.40;2.08;;;8.40;99.90;;;;;;5039912;28;20080;-67
2021/12/01 09:44:56;;;;;;;7.03;2.35;;;8.50;99.90;;;;;;5041179;28;20632;-67
2021/12/01 09:47:22;;;;;;;6.53;1.58;;;8.50;99.90;;;;;;5051584;28;20068;-67
2021/12/01 09:49:48;;;;;;;7.30;1.52;;;8.40;99.90;;;;;;5048381;28;20084;-68
2021/12/01 09:52:14;;;;;;;12.73;1.35;;;8.50;99.90;;;;;;5048833;28;20054;-69
2021/12/01 09:54:39;;;;;;;10.05;2.08;;;8.50;99.90;;;;;;5051355;28;20060;-68
2021/12/01 09:57:13;;;;;;;10.60;2.17;;;8.50;99.90;;;;;;5047607;28;20044;-68
2021/12/01 09:59:40;;;;;;;14.40;2.17;;;8.60;99.90;;;;;;5044287;28;20356;-68
2021/12/01 10:02:05;;;;;;;7.38;1.90;;;8.60;99.90;;;;;;5040379;28;20056;-67
2021/12/01 10:04:31;;;;;;;14.20;2.25;;;8.70;99.90;;;;;;5045146;28;20033;-67
2021/12/01 10:07:18;;;;;;;9.50;1.52;;;8.80;99.90;;;;;;5042660;28;20076;-67
2021/12/01 10:09:46;;;;;;;9.18;1.95;;;8.90;99.90;;;;;;5043579;28;20095;-67
2021/12/01 10:12:13;;;;;;;15.60;2.65;;;9.00;99.90;;;;;;5039763;28;20499;-67
2021/12/01 10:14:44;;;;;;;8.02;2.45;;;9.00;99.90;;;;;;5044182;28;20045;-68
2021/12/01 10:17:09;;;;;;;14.98;3.08;;;9.10;99.90;;;;;;5037696;28;20079;-67
2021/12/01 10:19:35;;;;;;;10.98;2.67;;;9.00;99.90;;;;;;5038961;28;20332;-67
2021/12/01 10:22:08;;;;;;;16.88;2.67;;;9.00;99.90;;;;;;5039682;28;20052;-67
2021/12/01 10:24:36;;;;;;;20.27;3.47;;;9.00;99.90;;;;;;5045721;28;20435;-68
2021/12/01 10:27:08;;;;;;;10.30;2.47;;;9.00;99.90;;;;;;5038874;28;20140;-68
2021/12/01 10:29:41;;;;;;;10.23;2.00;;;9.00;99.90;;;;;;5041241;28;21350;-67
2021/12/01 10:32:07;;;;;;;9.68;2.75;;;8.90;99.90;;;;;;5041381;28;20045;-67
2021/12/01 10:34:39;;;;;;;9.90;2.55;;;8.90;99.90;;;;;;5040381;28;20053;-68
2021/12/01 10:37:22;;;;;;;6.90;1.80;;;8.80;99.90;;;;;;5045158;28;20051;-67
2021/12/01 10:40:03;;;;;;;8.77;1.95;;;8.70;99.90;;;;;;5040204;28;20477;-67
2021/12/01 10:42:29;;;;;;;9.82;2.30;;;8.70;99.90;;;;;;5039588;28;20045;-67
2021/12/01 10:45:06;;;;;;;18.02;3.15;;;8.70;99.90;;;;;;5042135;28;20045;-67
2021/12/01 10:47:41;;;;;;;14.50;2.28;;;8.80;99.90;;;;;;5038595;28;20061;-67
2021/12/01 10:50:13;;;;;;;18.30;3.08;;;8.80;99.90;;;;;;5046589;28;20107;-67
2021/12/01 10:52:45;;;;;;;13.20;3.00;;;8.80;99.90;;;;;;5048726;28;20087;-67
2021/12/01 10:55:17;;;;;;;9.48;2.28;;;8.90;99.90;;;;;;5055313;28;20041;-68
2021/12/01 10:57:45;;;;;;;;;;;8.90;99.90;;;;;;5046372;28;20072;-68
2021/12/01 11:00:18;;;;;;;13.52;2.28;;;8.90;99.90;;;;;;5049711;28;19920;-68
2021/12/01 11:02:44;;;;;;;8.25;1.45;;;9.00;99.90;;;;;;5052302;28;20558;-67
2021/12/01 11:05:10;;;;;;;13.27;2.83;;;9.10;99.90;;;;;;5045548;28;20438;-68
2021/12/01 11:07:36;;;;;;;16.63;2.70;;;9.10;99.90;;;;;;5054880;28;20044;-68
2021/12/01 11:10:12;;;;;;;17.08;2.38;;;9.00;99.90;;;;;;5069082;28;20037;-68
2021/12/01 11:12:37;;;;;;;15.77;3.00;;;9.00;99.90;;;;;;5051128;28;20052;-68
2021/12/01 11:15:20;;;;;;;15.52;2.17;;;9.00;99.90;;;;;;5066552;28;20051;-68
2021/12/01 11:17:47;;;;;;;11.85;2.67;;;9.00;99.90;;;;;;5045577;28;20044;-67
2021/12/01 11:20:50;;;;;;;14.48;2.78;;;8.90;99.90;;;;;;5041426;28;20125;-67
2021/12/01 11:23:24;;;;;;;12.18;2.85;;;9.00;99.90;;;;;;5039177;28;20053;-68
2021/12/01 11:25:55;;;;;;;17.05;3.63;;;9.00;99.90;;;;;;5040183;28;20480;-67
2021/12/01 11:28:24;;;;;;;17.13;4.03;;;9.00;99.90;;;;;;5040684;28;20048;-68
2021/12/01 11:30:53;;;;;;;20.08;4.68;;;8.90;99.90;;;;;;5049952;28;20041;-67
2021/12/01 11:33:20;;;;;;;17.52;3.42;;;8.80;99.90;;;;;;5069510;28;20053;-67
2021/12/01 11:35:50;;;;;;;30.35;5.00;;;8.60;99.90;;;;;;5056448;28;20475;-67
2021/12/01 11:38:16;;;;;;;14.93;3.80;;;8.50;99.90;;;;;;5047720;28;20527;-67
2021/12/01 11:40:43;;;;;;;18.88;4.40;;;8.50;99.90;;;;;;5045766;28;20318;-68
2021/12/01 11:43:10;;;;;;;16.90;4.35;;;8.40;99.90;;;;;;5048843;28;20300;-68
2021/12/01 11:45:41;;;;;;;14.30;3.67;;;8.30;99.90;;;;;;5046548;28;20049;-68
2021/12/01 11:48:21;;;;;;;15.32;4.47;;;8.20;99.90;;;;;;5049431;28;20467;-68
2021/12/01 11:51:01;;;;;;;14.35;3.00;;;8.20;99.90;;;;;;5048645;28;20057;-68
2021/12/01 11:53:36;;;;;;;17.77;3.50;;;8.10;99.90;;;;;;5060171;28;20049;-68
2021/12/01 11:56:26;;;;;;;20.65;4.57;;;8.10;99.90;;;;;;5054461;28;20502;-68
2021/12/01 11:58:52;;;;;;;16.67;4.15;;;8.10;99.90;;;;;;5061537;28;20053;-68
2021/12/01 12:01:21;;;;;;;12.07;3.03;;;8.10;99.90;;;;;;5056706;28;20044;-68
2021/12/01 12:04:01;;;;;;;22.65;3.88;;;8.10;99.90;;;;;;5059118;28;20180;-68
2021/12/01 12:06:28;;;;;;;17.45;2.92;;;8.10;99.90;;;;;;5052018;28;20454;-68
2021/12/01 12:08:53;;;;;;;31.27;3.40;;;8.20;99.90;;;;;;5056479;28;20503;-67
2021/12/01 12:11:38;;;;;;;25.70;4.45;;;8.20;99.90;;;;;;5047946;28;20099;-68
2021/12/01 12:14:32;;;;;;;17.40;2.95;;;8.20;99.90;;;;;;5042092;28;20144;-68
2021/12/01 12:17:08;;;;;;;14.40;2.83;;;8.20;99.90;;;;;;5040113;28;20041;-67
2021/12/01 12:19:46;;;;;;;17.55;3.47;;;8.20;99.90;;;;;;5032107;28;20057;-67
2021/12/01 12:22:17;;;;;;;11.15;2.97;;;8.20;99.90;;;;;;5058323;28;20056;-68
2021/12/01 12:24:48;;;;;;;12.38;3.20;;;8.20;99.90;;;;;;5071457;28;20048;-68
2021/12/01 12:27:31;;;;;;;16.08;3.63;;;8.20;99.90;;;;;;5072079;28;20052;-68
2021/12/01 12:29:59;;;;;;;14.07;2.88;;;8.20;99.90;;;;;;5071605;28;20057;-68
2021/12/01 12:32:29;;;;;;;10.98;2.42;;;8.20;99.90;;;;;;5072532;28;20513;-67
2021/12/01 12:35:02;;;;;;;10.82;2.63;;;8.20;99.90;;;;;;5071586;28;20106;-68
2021/12/01 12:37:30;;;;;;;13.45;2.88;;;8.10;99.90;;;;;;5072746;28;20055;-68
2021/12/01 12:39:58;;;;;;;11.98;2.88;;;8.00;99.90;;;;;;5071935;28;20049;-68
2021/12/01 12:42:26;;;;;;;11.55;2.95;;;7.90;99.90;;;;;;5071568;28;20127;-68
2021/12/01 12:44:54;;;;;;;9.27;2.00;;;7.80;99.90;;;;;;5071339;28;20063;-68
2021/12/01 12:47:22;;;;;;;16.15;2.97;;;7.80;99.90;;;;;;5069285;28;20098;-66
2021/12/01 12:50:10;;;;;;;16.63;2.60;;;7.80;99.90;;;;;;5072239;28;20452;-67
2021/12/01 12:53:04;;;;;;;14.63;2.65;;;7.90;99.90;;;;;;5071148;28;20406;-67
2021/12/01 12:55:40;;;;;;;9.10;2.25;;;7.90;99.90;;;;;;5070160;28;20052;-67
2021/12/01 12:58:11;;;;;;;12.45;2.58;;;7.80;99.90;;;;;;5071738;28;20040;-66